.
WxDataArchive / Data Records for 2008-07-22
2008-07-21 July 2008 2008-07-23

Data Records for Tuesday, 22 July 2008

Time	Temp	Chill	HIndex	Humid	Dewpt	 Wind 	HiWind	WindDir	Rain 	Barom 
-----	----	-----	------	-----	-----	------	------	-------	-----	----- 
00:00	71.1	71.1	71.1	82	65.3	0	1	315	0.00	29.860 
00:05	71.1	71.1	71.1	82	65.3	0	1	315	0.00	29.853 
00:10	70.9	70.9	70.9	82	65.1	0	1	315	0.00	29.853 
00:15	70.9	70.9	70.9	82	65.1	0	1	315	0.00	29.847 
00:20	70.8	70.8	70.8	82	65.0	0	1	315	0.00	29.844 
00:25	70.4	70.4	70.4	82	64.6	0	1	315	0.00	29.836 
00:30	70.3	70.3	70.3	82	64.5	0	1	315	0.00	29.831 
00:35	70.1	70.1	70.1	82	64.3	0	1	315	0.00	29.828 
00:40	69.9	69.9	69.9	82	64.1	0	1	315	0.00	29.822 
00:45	69.8	69.8	69.8	82	64.0	0	1	315	0.00	29.832 
00:50	69.8	69.8	69.8	81	63.7	0	0	---	0.00	29.832 
00:55	69.6	69.6	69.6	81	63.5	0	0	---	0.00	29.827 
01:00	69.4	69.4	69.4	80	63.0	0	1	315	0.00	29.830 
01:05	69.4	69.4	69.4	80	63.0	0	0	---	0.00	29.835 
01:10	69.4	69.4	69.4	80	63.0	0	0	---	0.00	29.838 
01:15	69.3	69.3	69.3	80	62.9	0	0	---	0.00	29.839 
01:20	69.1	69.1	69.1	79	62.3	0	0	---	0.00	29.839 
01:25	69.1	69.1	69.1	80	62.7	0	0	---	0.00	29.840 
01:30	68.9	68.9	68.9	80	62.5	0	1	315	0.00	29.839 
01:35	68.8	68.8	68.8	80	62.4	0	0	---	0.00	29.844 
01:40	68.6	68.6	68.6	81	62.5	0	0	---	0.00	29.850 
01:45	68.6	68.6	68.6	81	62.5	0	1	315	0.00	29.858 
01:50	68.6	68.6	68.6	81	62.5	0	1	315	0.00	29.869 
01:55	68.6	68.6	68.6	81	62.5	0	1	315	0.00	29.877 
02:00	68.6	68.6	68.6	81	62.5	0	1	315	0.00	29.879 
02:05	68.8	68.8	68.8	81	62.7	0	1	315	0.00	29.876 
02:10	68.8	68.8	68.8	81	62.7	0	1	315	0.00	29.872 
02:15	68.9	68.9	68.9	81	62.8	0	1	315	0.00	29.868 
02:20	68.9	68.9	68.9	80	62.5	0	0	---	0.00	29.865 
02:25	68.9	68.9	68.9	79	62.1	0	0	---	0.00	29.865 
02:30	68.9	68.9	68.9	79	62.1	0	1	315	0.00	29.866 
02:35	69.1	69.1	69.1	78	61.9	0	1	315	0.00	29.869 
02:40	69.3	69.3	69.3	78	62.1	1	3	248	0.00	29.881 
02:45	69.6	69.6	69.6	78	62.4	1	3	248	0.00	29.877 
02:50	69.8	69.8	69.8	78	62.6	1	4	248	0.00	29.878 
02:55	69.8	69.8	69.8	78	62.6	1	4	270	0.00	29.877 
03:00	69.9	69.9	69.9	78	62.7	0	2	270	0.00	29.879 
03:05	70.1	70.1	70.1	78	62.9	0	1	270	0.00	29.880 
03:10	70.1	70.1	70.1	78	62.9	0	1	270	0.00	29.880 
03:15	70.1	70.1	70.1	79	63.3	1	3	270	0.00	29.882 
03:20	70.1	70.1	70.1	80	63.6	0	2	248	0.00	29.880 
03:25	69.9	69.9	69.9	80	63.4	0	1	248	0.00	29.879 
03:30	69.8	69.8	69.8	80	63.3	0	0	---	0.00	29.865 
03:35	69.6	69.6	69.6	80	63.1	0	1	248	0.00	29.867 
03:40	69.4	69.4	69.4	80	63.0	0	0	---	0.00	29.866 
03:45	69.4	69.4	69.4	81	63.3	0	0	---	0.00	29.864 
03:50	69.3	69.3	69.3	81	63.2	0	0	---	0.00	29.863 
03:55	69.1	69.1	69.1	82	63.4	0	0	---	0.00	29.856 
04:00	68.9	68.9	68.9	82	63.2	0	0	---	0.00	29.851 
04:05	68.8	68.8	68.8	83	63.4	0	0	---	0.00	29.852 
04:10	68.6	68.6	68.6	84	63.6	0	0	---	0.00	29.848 
04:15	68.4	68.4	68.4	84	63.4	0	0	---	0.00	29.852 
04:20	68.4	68.4	68.4	84	63.4	0	0	---	0.00	29.851 
04:25	68.4	68.4	68.4	84	63.4	0	0	---	0.00	29.851 
04:30	68.3	68.3	68.3	84	63.3	0	0	---	0.00	29.852 
04:35	68.3	68.3	68.3	84	63.3	0	0	---	0.00	29.852 
04:40	68.1	68.1	68.1	84	63.1	0	0	---	0.00	29.851 
04:45	68.1	68.1	68.1	84	63.1	0	0	---	0.00	29.850 
04:50	67.9	67.9	67.9	84	62.9	0	0	---	0.00	29.852 
04:55	67.8	67.8	67.8	85	63.1	0	0	---	0.00	29.852 
05:00	67.6	67.6	67.6	86	63.3	0	0	---	0.00	29.852 
05:05	67.4	67.4	67.4	86	63.1	0	0	---	0.00	29.859 
05:10	67.4	67.4	67.4	87	63.4	0	0	---	0.00	29.860 
05:15	67.3	67.3	67.3	87	63.3	0	0	---	0.00	29.859 
05:20	67.3	67.3	67.3	87	63.3	0	0	---	0.00	29.862 
05:25	67.1	67.1	67.1	88	63.4	0	0	---	0.00	29.865 
05:30	66.8	66.8	66.8	88	63.1	0	0	---	0.00	29.865 
05:35	66.6	66.6	66.6	88	62.9	0	0	---	0.00	29.860 
05:40	66.3	66.3	66.3	89	63.0	0	0	---	0.00	29.858 
05:45	66.1	66.1	66.1	89	62.8	0	0	---	0.00	29.855 
05:50	66.0	66.0	66.0	90	63.0	0	0	---	0.00	29.854 
05:55	65.8	65.8	65.8	90	62.8	0	0	---	0.00	29.854 
06:00	65.8	65.8	65.8	91	63.1	0	0	---	0.00	29.855 
06:05	65.6	65.6	65.6	91	62.9	0	0	---	0.00	29.856 
06:10	65.6	65.6	65.6	92	63.2	0	0	---	0.00	29.855 
06:15	65.6	65.6	65.6	92	63.2	0	0	---	0.00	29.856 
06:20	65.6	65.6	65.6	92	63.2	0	0	---	0.00	29.858 
06:25	65.8	65.8	65.8	92	63.4	0	0	---	0.00	29.855 
06:30	66.1	66.1	66.1	92	63.7	0	0	---	0.00	29.854 
06:35	66.4	66.4	66.4	92	64.0	0	0	---	0.00	29.854 
06:40	66.8	66.8	66.8	92	64.4	0	1	248	0.00	29.853 
06:45	66.9	66.9	66.9	90	63.9	0	2	22	0.00	29.852 
06:50	67.3	67.3	67.3	89	63.9	0	1	22	0.00	29.853 
06:55	67.6	67.6	67.6	88	63.9	0	1	22	0.00	29.855 
07:00	67.8	67.8	67.8	86	63.5	0	2	22	0.00	29.866 
07:05	68.1	68.1	68.1	84	63.1	0	2	292	0.00	29.870 
07:10	68.4	68.4	68.4	83	63.0	0	3	292	0.00	29.873 
07:15	68.8	68.8	68.8	81	62.7	0	2	292	0.00	29.875 
07:20	69.1	69.1	69.1	81	63.0	0	1	292	0.00	29.878 
07:25	69.4	69.4	69.4	80	63.0	0	1	292	0.00	29.882 
07:30	69.8	69.8	69.8	79	63.0	0	1	292	0.00	29.883 
07:35	70.3	70.3	70.3	78	63.1	0	1	292	0.00	29.883 
07:40	70.9	70.9	70.9	78	63.7	0	1	292	0.00	29.884 
07:45	70.9	70.9	70.9	76	62.9	0	1	292	0.00	29.881 
07:50	71.3	71.3	71.3	77	63.7	0	1	292	0.00	29.873 
07:55	71.6	71.6	71.6	77	64.0	0	1	292	0.00	29.870 
08:00	72.0	72.0	72.0	76	64.0	0	1	292	0.00	29.872 
08:05	72.1	72.1	72.1	77	64.5	0	1	292	0.00	29.878 
08:10	72.7	72.7	72.7	76	64.7	0	1	292	0.00	29.876 
08:15	73.0	73.0	73.0	75	64.6	0	1	292	0.00	29.874 
08:20	73.5	73.5	73.5	75	65.1	0	1	292	0.00	29.879 
08:25	73.5	73.5	73.5	73	64.3	0	2	292	0.00	29.880 
08:30	73.3	73.3	73.3	73	64.1	0	2	292	0.00	29.875 
08:35	73.7	73.7	73.7	75	65.3	0	1	292	0.00	29.874 
08:40	74.4	74.4	74.4	74	65.6	0	2	292	0.00	29.874 
08:45	75.1	75.1	76.7	71	65.0	0	1	292	0.00	29.874 
08:50	74.9	74.9	74.9	70	64.4	0	1	292	0.00	29.876 
08:55	74.9	74.9	74.9	73	65.6	0	1	292	0.00	29.878 
09:00	75.3	75.3	76.9	71	65.2	1	3	45	0.00	29.880 
09:05	75.4	75.4	77.0	71	65.3	0	1	45	0.00	29.883 
09:10	75.8	75.8	77.4	70	65.3	0	2	45	0.00	29.884 
09:15	75.8	75.8	77.4	71	65.7	0	2	45	0.00	29.887 
09:20	75.3	75.3	77.0	69	64.4	0	2	22	0.00	29.887 
09:25	74.9	74.9	74.9	70	64.4	0	1	22	0.00	29.888 
09:30	75.6	75.6	77.0	73	66.3	0	1	22	0.00	29.888 
09:35	76.5	76.5	78.2	69	65.6	0	1	22	0.00	29.888 
09:40	77.0	77.0	78.8	67	65.2	0	2	22	0.00	29.887 
09:45	77.4	77.4	79.2	66	65.1	0	2	22	0.00	29.893 
09:50	77.0	77.0	78.8	65	64.3	1	2	22	0.00	29.891 
09:55	76.5	76.5	78.3	67	64.7	1	3	248	0.00	29.891 
10:00	76.0	76.0	77.8	66	63.8	0	1	248	0.00	29.895 
10:05	76.3	76.3	78.1	66	64.1	0	2	248	0.00	29.894 
10:10	77.0	77.0	78.8	65	64.3	0	1	248	0.00	29.894 
10:15	77.6	77.6	79.4	63	64.0	0	2	270	0.00	29.891 
10:20	77.7	77.7	79.6	66	65.4	0	1	270	0.00	29.891 
10:25	77.9	77.9	79.7	63	64.3	0	2	338	0.00	29.893 
10:30	78.3	78.3	80.1	62	64.2	1	3	338	0.00	29.893 
10:35	78.8	78.8	80.7	63	65.1	0	2	68	0.00	29.896 
10:40	79.6	79.6	81.4	61	64.9	0	2	68	0.00	29.892 
10:45	79.6	79.6	81.3	60	64.5	0	2	68	0.00	29.894 
10:50	79.0	79.0	80.7	60	63.9	0	2	338	0.00	29.896 
10:55	79.2	79.2	80.8	59	63.6	0	1	338	0.00	29.898 
11:00	79.6	79.6	81.3	60	64.5	0	1	338	0.00	29.898 
11:05	79.6	79.6	80.9	55	62.0	0	2	338	0.00	29.898 
11:10	79.9	79.9	81.4	57	63.3	0	2	338	0.00	29.897 
11:15	79.2	79.2	80.7	57	62.6	1	3	338	0.00	29.897 
11:20	78.6	78.6	80.2	59	63.1	0	3	338	0.00	29.895 
11:25	79.0	79.0	80.7	60	63.9	1	3	315	0.00	29.898 
11:30	79.8	79.8	81.8	62	65.6	0	2	315	0.00	29.896 
11:35	79.9	79.9	81.5	58	63.8	0	3	22	0.00	29.895 
11:40	79.2	79.2	80.7	57	62.6	1	3	315	0.00	29.891 
11:45	79.4	79.4	81.1	60	64.3	1	3	270	0.00	29.888 
11:50	79.9	79.9	81.5	58	63.8	0	2	270	0.00	29.890 
11:55	80.1	80.1	81.4	55	62.4	0	1	292	0.00	29.892 
12:00	79.8	79.8	81.2	56	62.7	1	3	292	0.00	29.891 
12:05	79.8	79.8	81.2	56	62.7	1	3	292	0.00	29.891 
12:10	79.9	79.9	81.2	55	62.3	1	3	292	0.00	29.888 
12:15	80.1	80.1	81.3	54	61.9	0	1	292	0.00	29.888 
12:20	80.7	80.7	81.4	50	60.3	1	4	270	0.00	29.885 
12:25	81.2	81.2	82.3	53	62.4	0	3	270	0.00	29.883 
12:30	81.8	81.8	83.2	54	63.5	1	4	112	0.00	29.883 
12:35	81.6	81.6	82.5	51	61.7	0	1	112	0.00	29.885 
12:40	81.2	81.2	81.8	49	60.2	1	3	90	0.00	29.886 
12:45	80.7	80.7	81.3	49	59.7	0	2	90	0.00	29.892 
12:50	79.8	79.8	80.8	52	60.6	1	3	315	0.00	29.891 
12:55	79.9	79.9	80.9	52	60.7	0	2	338	0.00	29.888 
13:00	80.5	80.5	81.0	48	59.0	1	4	338	0.00	29.891 
13:05	80.9	80.9	81.2	46	58.2	1	3	270	0.00	29.890 
13:10	81.4	81.4	82.1	50	60.9	1	3	270	0.00	29.886 
13:15	81.1	81.1	81.4	46	58.3	1	3	292	0.00	29.891 
13:20	81.4	81.4	81.8	47	59.2	0	2	270	0.00	29.892 
13:25	81.8	81.8	82.4	49	60.7	1	2	292	0.00	29.891 
13:30	81.6	81.6	81.9	47	59.4	0	1	292	0.00	29.894 
13:35	81.6	81.6	81.5	43	56.9	1	4	292	0.00	29.891 
13:40	81.8	81.8	82.0	46	59.0	1	2	270	0.00	29.892 
13:45	81.8	81.8	81.8	44	57.7	1	4	270	0.00	29.895 
13:50	81.6	81.6	81.7	45	58.2	1	3	292	0.00	29.892 
13:55	81.4	81.4	81.2	42	56.1	1	4	270	0.00	29.890 
14:00	81.4	81.4	81.0	40	54.7	1	4	292	0.00	29.894 
14:05	81.6	81.6	81.1	40	54.9	0	2	292	0.00	29.892 
14:10	82.0	82.0	81.5	40	55.3	1	3	315	0.00	29.889 
14:15	81.8	81.8	81.5	42	56.4	1	3	292	0.00	29.890 
14:20	82.2	82.2	81.3	37	53.3	0	3	292	0.00	29.888 
14:25	82.0	82.0	82.1	45	58.5	0	3	292	0.00	29.887 
14:30	81.6	81.6	82.1	48	60.0	0	3	270	0.00	29.885 
14:35	82.0	82.0	82.2	46	59.1	1	3	248	0.00	29.879 
14:40	82.2	82.2	82.4	46	59.3	1	3	248	0.00	29.876 
14:45	81.4	81.4	81.8	47	59.2	1	2	292	0.00	29.879 
14:50	81.6	81.6	81.9	47	59.4	1	3	292	0.00	29.878 
14:55	81.6	81.6	81.7	45	58.2	1	5	292	0.00	29.876 
15:00	81.8	81.8	82.3	48	60.2	1	3	292	0.00	29.878 
15:05	82.0	82.0	82.3	47	59.8	1	4	315	0.00	29.877 
15:10	81.8	81.8	82.1	47	59.6	1	4	315	0.00	29.876 
15:15	81.8	81.8	82.1	47	59.6	2	3	315	0.00	29.874 
15:20	82.0	82.0	82.1	45	58.5	2	4	270	0.00	29.874 
15:25	82.0	82.0	82.2	46	59.1	1	3	248	0.00	29.871 
15:30	82.0	82.0	82.5	48	60.3	1	4	270	0.00	29.869 
15:35	82.0	82.0	82.3	47	59.8	1	2	315	0.00	29.868 
15:40	81.6	81.6	81.8	46	58.8	1	3	315	0.00	29.868 
15:45	81.4	81.4	81.9	48	59.8	1	3	315	0.00	29.868 
15:50	81.8	81.8	82.4	49	60.7	2	6	292	0.00	29.868 
15:55	81.6	81.6	82.1	48	60.0	1	4	270	0.00	29.869 
16:00	81.4	81.4	81.8	47	59.2	1	3	315	0.00	29.868 
16:05	80.9	80.9	81.3	47	58.8	1	4	315	0.00	29.869 
16:10	81.1	81.1	81.4	46	58.3	1	3	270	0.00	29.869 
16:15	81.4	81.4	81.9	48	59.8	0	3	248	0.00	29.866 
16:20	81.8	81.8	82.0	46	59.0	1	3	248	0.00	29.860 
16:25	81.8	81.8	82.0	46	59.0	0	2	292	0.00	29.857 
16:30	81.8	81.8	82.1	47	59.6	1	2	292	0.00	29.855 
16:35	81.8	81.8	82.1	47	59.6	1	2	270	0.00	29.855 
16:40	81.8	81.8	82.3	48	60.2	1	4	270	0.00	29.853 
16:45	81.2	81.2	81.6	47	59.0	1	2	270	0.00	29.854 
16:50	81.1	81.1	81.6	48	59.5	1	2	315	0.00	29.853 
16:55	81.1	81.1	81.7	49	60.1	1	4	270	0.00	29.854 
17:00	80.9	80.9	81.6	50	60.5	0	2	315	0.00	29.852 
17:05	80.9	80.9	81.4	48	59.3	0	2	315	0.00	29.855 
17:10	80.7	80.7	81.1	47	58.6	1	3	315	0.00	29.852 
17:15	80.5	80.5	81.0	48	59.0	0	2	315	0.00	29.851 
17:20	80.1	80.1	80.9	50	59.8	1	4	315	0.00	29.850 
17:25	79.9	79.9	80.9	52	60.7	1	3	270	0.00	29.850 
17:30	79.9	79.9	80.9	52	60.7	1	3	270	0.00	29.853 
17:35	79.8	79.8	80.8	52	60.6	2	5	315	0.00	29.854 
17:40	78.8	78.8	80.1	54	60.7	1	3	315	0.00	29.856 
17:45	79.0	79.0	80.4	56	61.9	0	2	315	0.00	29.856 
17:50	79.2	79.2	80.4	54	61.1	1	4	292	0.00	29.856 
17:55	79.0	79.0	80.3	55	61.4	1	3	315	0.00	29.859 
18:00	79.0	79.0	80.3	54	60.9	1	3	315	0.00	29.862 
18:05	78.8	78.8	80.1	54	60.7	1	3	292	0.00	29.863 
18:10	78.6	78.6	79.8	53	60.0	1	3	315	0.00	29.864 
18:15	78.6	78.6	79.8	53	60.0	1	3	315	0.00	29.866 
18:20	78.5	78.5	79.8	54	60.4	1	3	315	0.00	29.868 
18:25	78.3	78.3	79.7	54	60.3	1	3	315	0.00	29.870 
18:30	77.7	77.7	79.3	57	61.2	0	2	292	0.00	29.869 
18:35	77.4	77.4	79.1	59	61.9	1	4	315	0.00	29.872 
18:40	77.0	77.0	78.8	60	62.0	1	3	315	0.00	29.873 
18:45	76.5	76.5	78.4	60	61.6	1	5	315	0.00	29.876 
18:50	76.0	76.0	78.0	59	60.6	1	5	315	0.00	29.883 
18:55	75.4	75.4	77.6	60	60.5	0	2	315	0.00	29.884 
19:00	75.1	75.1	77.4	61	60.7	1	4	270	0.00	29.887 
19:05	74.7	74.7	74.7	60	59.9	1	3	270	0.00	29.885 
19:10	74.2	74.2	74.2	61	59.9	1	5	270	0.00	29.885 
19:15	73.9	73.9	73.9	62	60.0	1	3	270	0.00	29.885 
19:20	73.5	73.5	73.5	62	59.7	1	3	315	0.00	29.885 
19:25	73.2	73.2	73.2	63	59.8	1	4	270	0.00	29.888 
19:30	72.8	72.8	72.8	63	59.5	1	3	270	0.00	29.888 
19:35	72.5	72.5	72.5	64	59.6	0	3	315	0.00	29.888 
19:40	72.3	72.3	72.3	64	59.4	0	2	315	0.00	29.889 
19:45	72.0	72.0	72.0	64	59.1	0	2	315	0.00	29.889 
19:50	71.8	71.8	71.8	65	59.4	0	2	315	0.00	29.889 
19:55	71.5	71.5	71.5	64	58.7	1	3	270	0.00	29.889 
20:00	71.3	71.3	71.3	65	58.9	1	4	315	0.00	29.890 
20:05	71.1	71.1	71.1	64	58.3	1	2	315	0.00	29.887 
20:10	70.8	70.8	70.8	65	58.4	1	2	315	0.00	29.887 
20:15	70.6	70.6	70.6	65	58.2	1	3	270	0.00	29.886 
20:20	70.4	70.4	70.4	65	58.1	0	2	292	0.00	29.889 
20:25	70.1	70.1	70.1	66	58.2	0	2	292	0.00	29.889 
20:30	69.9	69.9	69.9	66	58.0	0	2	292	0.00	29.890 
20:35	69.8	69.8	69.8	67	58.3	0	1	292	0.00	29.894 
20:40	69.4	69.4	69.4	68	58.4	0	1	292	0.00	29.894 
20:45	69.3	69.3	69.3	68	58.3	0	1	292	0.00	29.895 
20:50	69.1	69.1	69.1	69	58.5	0	1	292	0.00	29.898 
20:55	68.9	68.9	68.9	69	58.3	0	1	292	0.00	29.900 
21:00	68.8	68.8	68.8	70	58.6	0	1	292	0.00	29.904 
21:05	68.6	68.6	68.6	70	58.4	0	1	292	0.00	29.905 
21:10	68.4	68.4	68.4	71	58.6	0	1	292	0.00	29.905 
21:15	68.3	68.3	68.3	71	58.5	0	2	292	0.00	29.908 
21:20	68.3	68.3	68.3	72	58.9	0	2	270	0.00	29.910 
21:25	68.1	68.1	68.1	72	58.7	0	2	270	0.00	29.913 
21:30	67.9	67.9	67.9	73	58.9	0	1	270	0.00	29.917 
21:35	67.8	67.8	67.8	73	58.8	0	1	270	0.00	29.919 
21:40	67.6	67.6	67.6	73	58.6	0	1	270	0.00	29.920 
21:45	67.4	67.4	67.4	73	58.4	0	0	---	0.00	29.920 
21:50	67.3	67.3	67.3	74	58.7	0	2	270	0.00	29.919 
21:55	67.3	67.3	67.3	74	58.7	0	1	270	0.00	29.919 
22:00	67.1	67.1	67.1	75	58.9	0	1	270	0.00	29.921 
22:05	66.9	66.9	66.9	75	58.7	0	1	270	0.00	29.919 
22:10	66.8	66.8	66.8	76	59.0	0	1	270	0.00	29.919 
22:15	66.6	66.6	66.6	76	58.8	0	0	---	0.00	29.919 
22:20	66.4	66.4	66.4	77	59.0	0	1	270	0.00	29.920 
22:25	66.3	66.3	66.3	77	58.9	0	1	270	0.00	29.919 
22:30	66.3	66.3	66.3	78	59.2	0	1	270	0.00	29.921 
22:35	66.3	66.3	66.3	78	59.2	0	1	292	0.00	29.922 
22:40	66.3	66.3	66.3	78	59.2	0	1	292	0.00	29.923 
22:45	66.1	66.1	66.1	79	59.4	0	1	292	0.00	29.923 
22:50	66.0	66.0	66.0	79	59.3	0	1	292	0.00	29.924 
22:55	66.0	66.0	66.0	80	59.6	0	1	292	0.00	29.925 
23:00	65.8	65.8	65.8	80	59.5	0	0	---	0.00	29.928 
23:05	65.6	65.6	65.6	81	59.6	0	0	---	0.00	29.928 
23:10	65.5	65.5	65.5	81	59.5	0	1	292	0.00	29.930 
23:15	65.5	65.5	65.5	82	59.9	0	1	292	0.00	29.932 
23:20	65.3	65.3	65.3	82	59.7	0	1	292	0.00	29.934 
23:25	65.2	65.2	65.2	82	59.6	0	0	---	0.00	29.935 
23:30	65.2	65.2	65.2	83	59.9	0	0	---	0.00	29.934 
23:35	65.0	65.0	65.0	83	59.7	0	0	---	0.00	29.934 
23:40	64.8	64.8	64.8	84	59.8	0	0	---	0.00	29.936 
23:45	64.7	64.7	64.7	84	59.7	0	0	---	0.00	29.935 
23:50	64.7	64.7	64.7	84	59.7	0	1	292	0.00	29.934 
23:55	64.5	64.5	64.5	84	59.6	0	0	---	0.00	29.935 

CoCoRaHS
IN-AL-39
A2 Web Hosting
Creative Commons License
GoDaddy
Look for:

loaded 2017-10-18 22:05:20 • last modified 2010-11-18 10:43:29
Privacy PolicyDisclaimer
• wx.awcolley.com is powered by PmWiki v.2002016 •
• all content (unless otherwise noted) © 2017 A W Colley